sensor_id;sensor_type;location;lat;lon;timestamp;pressure;altitude;pressure_sealevel;temperature;humidity
58690;BME280;44470;53.206;-6.106;2023-09-08T00:00:01;101608.53;;;21.04;71.52
58690;BME280;44470;53.206;-6.106;2023-09-08T00:02:29;101612.09;;;21.03;71.23
58690;BME280;44470;53.206;-6.106;2023-09-08T00:04:55;101607.66;;;21.04;71.58
58690;BME280;44470;53.206;-6.106;2023-09-08T00:07:20;101602.31;;;21.04;71.35
58690;BME280;44470;53.206;-6.106;2023-09-08T00:09:46;101605.84;;;21.04;71.06
58690;BME280;44470;53.206;-6.106;2023-09-08T00:12:11;101609.44;;;21.03;71.34
58690;BME280;44470;53.206;-6.106;2023-09-08T00:14:37;101603.19;;;21.04;71.34
58690;BME280;44470;53.206;-6.106;2023-09-08T00:17:02;101612.06;;;21.07;71.05
58690;BME280;44470;53.206;-6.106;2023-09-08T00:19:28;101608.53;;;21.04;71.25
58690;BME280;44470;53.206;-6.106;2023-09-08T00:21:53;101602.28;;;21.05;71.28
58690;BME280;44470;53.206;-6.106;2023-09-08T00:24:18;101596.06;;;21.03;71.07
58690;BME280;44470;53.206;-6.106;2023-09-08T00:26:44;101597.81;;;21.04;71.12
58690;BME280;44470;53.206;-6.106;2023-09-08T00:29:09;101603.19;;;21.04;71.29
58690;BME280;44470;53.206;-6.106;2023-09-08T00:31:34;101603.19;;;21.04;71.41
58690;BME280;44470;53.206;-6.106;2023-09-08T00:34:00;101595.16;;;21.04;71.39
58690;BME280;44470;53.206;-6.106;2023-09-08T00:36:25;101589.78;;;21.04;71.04
58690;BME280;44470;53.206;-6.106;2023-09-08T00:38:50;101599.63;;;21.04;70.95
58690;BME280;44470;53.206;-6.106;2023-09-08T00:41:16;101604.94;;;21.05;71.15
58690;BME280;44470;53.206;-6.106;2023-09-08T00:43:41;101595.16;;;21.04;71.17
58690;BME280;44470;53.206;-6.106;2023-09-08T00:46:06;101599.59;;;21.05;71.33
58690;BME280;44470;53.206;-6.106;2023-09-08T00:48:33;101590.69;;;21.03;71.18
58690;BME280;44470;53.206;-6.106;2023-09-08T00:50:59;101590.69;;;21.05;71.31
58690;BME280;44470;53.206;-6.106;2023-09-08T00:53:25;101595.16;;;21.06;71.13
58690;BME280;44470;53.206;-6.106;2023-09-08T00:55:51;101598.72;;;21.05;71.42
58690;BME280;44470;53.206;-6.106;2023-09-08T00:58:16;101597.81;;;21.04;71.07
58690;BME280;44470;53.206;-6.106;2023-09-08T01:00:42;101589.78;;;21.04;71.12
58690;BME280;44470;53.206;-6.106;2023-09-08T01:03:07;101593.38;;;21.03;70.96
58690;BME280;44470;53.206;-6.106;2023-09-08T01:05:32;101597.81;;;21.04;71.25
58690;BME280;44470;53.206;-6.106;2023-09-08T01:07:59;101596.97;;;21.04;70.96
58690;BME280;44470;53.206;-6.106;2023-09-08T01:10:24;101596.06;;;21.05;71.35
58690;BME280;44470;53.206;-6.106;2023-09-08T01:12:50;101590.69;;;21.03;71.27
58690;BME280;44470;53.206;-6.106;2023-09-08T01:15:15;101592.47;;;21.04;71.20
58690;BME280;44470;53.206;-6.106;2023-09-08T01:17:40;101593.38;;;21.05;70.91
58690;BME280;44470;53.206;-6.106;2023-09-08T01:20:08;101602.31;;;21.04;71.23
58690;BME280;44470;53.206;-6.106;2023-09-08T01:25:46;101591.56;;;21.05;71.16
58690;BME280;44470;53.206;-6.106;2023-09-08T01:28:15;101583.53;;;21.05;71.04
58690;BME280;44470;53.206;-6.106;2023-09-08T01:30:41;101583.53;;;21.05;71.04
58690;BME280;44470;53.206;-6.106;2023-09-08T01:33:07;101576.41;;;21.04;71.05
58690;BME280;44470;53.206;-6.106;2023-09-08T01:35:33;101576.41;;;21.04;71.17
58690;BME280;44470;53.206;-6.106;2023-09-08T01:37:59;101569.28;;;21.03;70.95
58690;BME280;44470;53.206;-6.106;2023-09-08T01:40:25;101574.63;;;21.03;70.92
58690;BME280;44470;53.206;-6.106;2023-09-08T01:42:50;101530.31;;;20.81;70.97
58690;BME280;44470;53.206;-6.106;2023-09-08T01:45:15;101563.94;;;21.03;71.22
58690;BME280;44470;53.206;-6.106;2023-09-08T01:47:41;101565.72;;;21.04;71.14
58690;BME280;44470;53.206;-6.106;2023-09-08T01:50:06;101562.13;;;21.05;71.07
58690;BME280;44470;53.206;-6.106;2023-09-08T01:52:32;101558.59;;;21.03;70.96
58690;BME280;44470;53.206;-6.106;2023-09-08T01:54:57;101554.13;;;21.04;71.04
58690;BME280;44470;53.206;-6.106;2023-09-08T01:57:23;101554.13;;;21.04;70.91
58690;BME280;44470;53.206;-6.106;2023-09-08T01:59:49;101554.13;;;21.04;70.82
58690;BME280;44470;53.206;-6.106;2023-09-08T02:02:14;101552.31;;;21.04;70.95
58690;BME280;44470;53.206;-6.106;2023-09-08T02:04:40;101560.34;;;21.04;70.88
58690;BME280;44470;53.206;-6.106;2023-09-08T02:07:05;101560.34;;;21.04;71.15
58690;BME280;44470;53.206;-6.106;2023-09-08T02:09:31;101560.34;;;21.04;70.79
58690;BME280;44470;53.206;-6.106;2023-09-08T02:11:57;101559.50;;;21.04;71.11
58690;BME280;44470;53.206;-6.106;2023-09-08T02:14:22;101558.59;;;21.03;70.71
58690;BME280;44470;53.206;-6.106;2023-09-08T02:16:47;101555.00;;;21.04;70.70
58690;BME280;44470;53.206;-6.106;2023-09-08T02:19:13;101563.91;;;21.07;71.07
58690;BME280;44470;53.206;-6.106;2023-09-08T02:21:38;101573.75;;;21.04;71.00
58690;BME280;44470;53.206;-6.106;2023-09-08T02:24:03;101573.75;;;21.04;71.02
58690;BME280;44470;53.206;-6.106;2023-09-08T02:26:29;101571.97;;;21.03;71.01
58690;BME280;44470;53.206;-6.106;2023-09-08T02:28:57;101569.28;;;21.03;70.75
58690;BME280;44470;53.206;-6.106;2023-09-08T02:31:24;101574.63;;;21.03;70.70
58690;BME280;44470;53.206;-6.106;2023-09-08T02:33:49;101576.41;;;21.04;70.82
58690;BME280;44470;53.206;-6.106;2023-09-08T02:36:15;101580.91;;;21.04;70.77
58690;BME280;44470;53.206;-6.106;2023-09-08T02:41:31;101580.00;;;21.03;70.71
58690;BME280;44470;53.206;-6.106;2023-09-08T02:43:56;101576.41;;;21.04;71.07
58690;BME280;44470;53.206;-6.106;2023-09-08T02:46:22;101570.19;;;21.04;70.90
58690;BME280;44470;53.206;-6.106;2023-09-08T02:48:47;101564.84;;;21.04;70.97
58690;BME280;44470;53.206;-6.106;2023-09-08T02:51:12;101569.28;;;21.03;70.81
58690;BME280;44470;53.206;-6.106;2023-09-08T02:53:38;101557.72;;;21.03;70.89
58690;BME280;44470;53.206;-6.106;2023-09-08T02:56:03;101557.72;;;21.03;70.71
58690;BME280;44470;53.206;-6.106;2023-09-08T02:58:30;101564.84;;;21.04;71.13
58690;BME280;44470;53.206;-6.106;2023-09-08T03:01:11;101564.84;;;21.04;70.95
58690;BME280;44470;53.206;-6.106;2023-09-08T03:03:42;101566.63;;;21.03;70.96
58690;BME280;44470;53.206;-6.106;2023-09-08T03:06:08;101567.53;;;21.02;70.82
58690;BME280;44470;53.206;-6.106;2023-09-08T03:08:34;101558.59;;;21.03;70.68
58690;BME280;44470;53.206;-6.106;2023-09-08T03:11:03;101563.06;;;21.03;70.86
58690;BME280;44470;53.206;-6.106;2023-09-08T03:13:28;101569.28;;;21.03;70.82
58690;BME280;44470;53.206;-6.106;2023-09-08T03:15:54;101567.50;;;21.04;70.99
58690;BME280;44470;53.206;-6.106;2023-09-08T03:18:20;101564.84;;;21.04;70.93
58690;BME280;44470;53.206;-6.106;2023-09-08T03:20:49;101555.00;;;21.04;71.07
58690;BME280;44470;53.206;-6.106;2023-09-08T03:23:15;101555.91;;;21.05;70.83
58690;BME280;44470;53.206;-6.106;2023-09-08T03:25:41;101555.00;;;21.04;70.82
58690;BME280;44470;53.206;-6.106;2023-09-08T03:28:06;101549.66;;;21.04;70.59
58690;BME280;44470;53.206;-6.106;2023-09-08T03:30:32;101552.31;;;21.04;70.67
58690;BME280;44470;53.206;-6.106;2023-09-08T03:32:57;101554.13;;;21.02;70.99
58690;BME280;44470;53.206;-6.106;2023-09-08T03:35:23;101563.94;;;21.03;70.85
58690;BME280;44470;53.206;-6.106;2023-09-08T03:37:48;101563.94;;;21.03;70.86
58690;BME280;44470;53.206;-6.106;2023-09-08T03:40:14;101555.94;;;21.02;70.93
58690;BME280;44470;53.206;-6.106;2023-09-08T03:42:39;101558.59;;;21.03;70.78
58690;BME280;44470;53.206;-6.106;2023-09-08T03:45:07;101558.59;;;21.03;70.67
58690;BME280;44470;53.206;-6.106;2023-09-08T03:47:33;101553.22;;;21.03;70.65
58690;BME280;44470;53.206;-6.106;2023-09-08T03:49:59;101553.22;;;21.05;70.99
58690;BME280;44470;53.206;-6.106;2023-09-08T03:52:24;101545.19;;;21.03;70.97
58690;BME280;44470;53.206;-6.106;2023-09-08T03:54:50;101557.69;;;21.04;70.94
58690;BME280;44470;53.206;-6.106;2023-09-08T03:57:15;101558.53;;;21.07;70.53
58690;BME280;44470;53.206;-6.106;2023-09-08T03:59:40;101545.19;;;21.03;70.98
58690;BME280;44470;53.206;-6.106;2023-09-08T04:02:06;101552.31;;;21.04;70.63
58690;BME280;44470;53.206;-6.106;2023-09-08T04:04:31;101546.09;;;21.04;70.91
58690;BME280;44470;53.206;-6.106;2023-09-08T04:06:56;101544.28;;;21.04;70.76
58690;BME280;44470;53.206;-6.106;2023-09-08T04:09:22;101548.78;;;21.04;70.66
58690;BME280;44470;53.206;-6.106;2023-09-08T04:11:47;101549.66;;;21.04;70.81
58690;BME280;44470;53.206;-6.106;2023-09-08T04:14:13;101555.91;;;21.03;70.85
58690;BME280;44470;53.206;-6.106;2023-09-08T04:16:38;101562.16;;;21.04;70.62
58690;BME280;44470;53.206;-6.106;2023-09-08T04:19:03;101553.22;;;21.03;70.85
58690;BME280;44470;53.206;-6.106;2023-09-08T04:21:29;101552.41;;;20.98;70.86
58690;BME280;44470;53.206;-6.106;2023-09-08T04:23:55;101564.84;;;21.04;70.91
58690;BME280;44470;53.206;-6.106;2023-09-08T04:26:21;101560.34;;;21.04;70.74
58690;BME280;44470;53.206;-6.106;2023-09-08T04:28:46;101556.81;;;21.04;70.60
58690;BME280;44470;53.206;-6.106;2023-09-08T04:31:11;101558.59;;;21.03;70.52
58690;BME280;44470;53.206;-6.106;2023-09-08T04:33:38;101565.72;;;21.04;70.72
58690;BME280;44470;53.206;-6.106;2023-09-08T04:36:03;101564.84;;;21.04;70.82
58690;BME280;44470;53.206;-6.106;2023-09-08T04:38:29;101565.72;;;21.04;70.51
58690;BME280;44470;53.206;-6.106;2023-09-08T04:40:54;101557.75;;;20.98;70.76
58690;BME280;44470;53.206;-6.106;2023-09-08T04:43:20;101564.81;;;21.05;70.52
58690;BME280;44470;53.206;-6.106;2023-09-08T04:45:45;101561.25;;;21.05;70.73
58690;BME280;44470;53.206;-6.106;2023-09-08T04:48:11;101554.13;;;21.04;70.88
58690;BME280;44470;53.206;-6.106;2023-09-08T04:50:37;101547.09;;;20.97;70.66
58690;BME280;44470;53.206;-6.106;2023-09-08T04:53:03;101550.56;;;21.03;70.43
58690;BME280;44470;53.206;-6.106;2023-09-08T04:55:29;101559.44;;;21.05;70.79
58690;BME280;44470;53.206;-6.106;2023-09-08T04:57:54;101555.91;;;21.05;70.76
58690;BME280;44470;53.206;-6.106;2023-09-08T05:00:19;101561.25;;;21.05;70.91
58690;BME280;44470;53.206;-6.106;2023-09-08T05:02:45;101558.59;;;21.05;70.84
58690;BME280;44470;53.206;-6.106;2023-09-08T05:05:11;101557.69;;;21.04;70.69
58690;BME280;44470;53.206;-6.106;2023-09-08T05:07:36;101561.25;;;21.03;70.81
58690;BME280;44470;53.206;-6.106;2023-09-08T05:10:02;101560.34;;;21.04;70.81
58690;BME280;44470;53.206;-6.106;2023-09-08T05:12:31;101557.69;;;21.04;70.83
58690;BME280;44470;53.206;-6.106;2023-09-08T05:14:57;101560.34;;;21.04;70.49
58690;BME280;44470;53.206;-6.106;2023-09-08T05:17:31;101566.59;;;21.05;70.69
58690;BME280;44470;53.206;-6.106;2023-09-08T05:19:57;101564.84;;;21.04;70.48
58690;BME280;44470;53.206;-6.106;2023-09-08T05:22:22;101555.91;;;21.05;70.86
58690;BME280;44470;53.206;-6.106;2023-09-08T05:24:49;101555.00;;;21.04;70.58
58690;BME280;44470;53.206;-6.106;2023-09-08T05:27:15;101555.00;;;21.04;70.84
58690;BME280;44470;53.206;-6.106;2023-09-08T05:29:40;101548.78;;;21.04;70.50
58690;BME280;44470;53.206;-6.106;2023-09-08T05:32:06;101544.28;;;21.04;70.50
58690;BME280;44470;53.206;-6.106;2023-09-08T05:34:31;101536.28;;;21.04;70.69
58690;BME280;44470;53.206;-6.106;2023-09-08T05:36:57;101554.09;;;21.05;70.82
58690;BME280;44470;53.206;-6.106;2023-09-08T05:39:22;101555.00;;;21.04;70.68
58690;BME280;44470;53.206;-6.106;2023-09-08T05:41:48;101557.69;;;21.04;70.58
58690;BME280;44470;53.206;-6.106;2023-09-08T05:44:13;101552.31;;;21.04;70.59
58690;BME280;44470;53.206;-6.106;2023-09-08T05:46:39;101548.78;;;21.04;70.58
58690;BME280;44470;53.206;-6.106;2023-09-08T05:49:04;101555.91;;;21.05;70.71
58690;BME280;44470;53.206;-6.106;2023-09-08T05:51:31;101531.91;;;20.97;70.70
58690;BME280;44470;53.206;-6.106;2023-09-08T05:53:57;101555.91;;;21.05;70.71
58690;BME280;44470;53.206;-6.106;2023-09-08T05:56:24;101555.00;;;21.04;70.47
58690;BME280;44470;53.206;-6.106;2023-09-08T05:58:49;101563.94;;;21.05;70.59
58690;BME280;44470;53.206;-6.106;2023-09-08T06:01:15;101568.38;;;21.04;70.65
58690;BME280;44470;53.206;-6.106;2023-09-08T06:03:40;101571.06;;;21.04;70.57
58690;BME280;44470;53.206;-6.106;2023-09-08T06:06:06;101571.97;;;21.05;70.78
58690;BME280;44470;53.206;-6.106;2023-09-08T06:08:31;101579.09;;;21.04;70.72
58690;BME280;44470;53.206;-6.106;2023-09-08T06:10:57;101581.75;;;21.04;70.37
58690;BME280;44470;53.206;-6.106;2023-09-08T06:13:23;101578.19;;;21.05;70.64
58690;BME280;44470;53.206;-6.106;2023-09-08T06:15:48;101581.75;;;21.04;70.66
58690;BME280;44470;53.206;-6.106;2023-09-08T06:18:14;101572.88;;;21.02;70.55
58690;BME280;44470;53.206;-6.106;2023-09-08T06:20:44;101571.13;;;20.98;70.35
58690;BME280;44470;53.206;-6.106;2023-09-08T06:23:10;101569.34;;;20.97;70.23
58690;BME280;44470;53.206;-6.106;2023-09-08T06:25:35;101569.34;;;20.97;70.37
58690;BME280;44470;53.206;-6.106;2023-09-08T06:28:13;101572.03;;;20.99;70.75
58690;BME280;44470;53.206;-6.106;2023-09-08T06:30:38;101576.47;;;21.00;70.49
58690;BME280;44470;53.206;-6.106;2023-09-08T06:33:08;101574.69;;;21.00;70.61
58690;BME280;44470;53.206;-6.106;2023-09-08T06:35:34;101576.44;;;21.01;70.44
58690;BME280;44470;53.206;-6.106;2023-09-08T06:37:59;101576.44;;;21.01;70.68
58690;BME280;44470;53.206;-6.106;2023-09-08T06:40:25;101582.69;;;21.02;70.60
58690;BME280;44470;53.206;-6.106;2023-09-08T06:42:51;101585.34;;;21.03;70.63
58690;BME280;44470;53.206;-6.106;2023-09-08T06:45:25;101584.47;;;21.03;70.88
58690;BME280;44470;53.206;-6.106;2023-09-08T06:47:51;101601.41;;;21.03;70.95
58690;BME280;44470;53.206;-6.106;2023-09-08T06:50:21;101595.19;;;21.03;70.59
58690;BME280;44470;53.206;-6.106;2023-09-08T06:52:46;101606.75;;;21.05;70.78
58690;BME280;44470;53.206;-6.106;2023-09-08T06:55:12;101597.81;;;21.04;70.92
58690;BME280;44470;53.206;-6.106;2023-09-08T06:57:38;101596.97;;;21.04;70.96
58690;BME280;44470;53.206;-6.106;2023-09-08T07:00:04;101593.38;;;21.03;71.00
58690;BME280;44470;53.206;-6.106;2023-09-08T07:02:31;101601.38;;;21.07;71.01
58690;BME280;44470;53.206;-6.106;2023-09-08T07:04:57;101584.56;;;20.97;70.99
58690;BME280;44470;53.206;-6.106;2023-09-08T07:07:22;101596.00;;;21.07;70.93
58690;BME280;44470;53.206;-6.106;2023-09-08T07:09:48;101581.88;;;20.95;71.08
58690;BME280;44470;53.206;-6.106;2023-09-08T07:12:14;101597.78;;;21.08;70.86
58690;BME280;44470;53.206;-6.106;2023-09-08T07:14:39;101587.13;;;21.04;70.88
58690;BME280;44470;53.206;-6.106;2023-09-08T07:17:05;101592.47;;;21.06;70.98
58690;BME280;44470;53.206;-6.106;2023-09-08T07:19:30;101588.03;;;21.05;70.83
58690;BME280;44470;53.206;-6.106;2023-09-08T07:21:57;101590.66;;;21.07;70.92
58690;BME280;44470;53.206;-6.106;2023-09-08T07:24:23;101590.66;;;21.07;71.17
58690;BME280;44470;53.206;-6.106;2023-09-08T07:26:49;101589.75;;;21.08;70.80
58690;BME280;44470;53.206;-6.106;2023-09-08T07:29:16;101586.22;;;21.05;71.17
58690;BME280;44470;53.206;-6.106;2023-09-08T07:31:41;101585.31;;;21.07;70.90
58690;BME280;44470;53.206;-6.106;2023-09-08T07:34:07;101596.00;;;21.07;70.87
58690;BME280;44470;53.206;-6.106;2023-09-08T07:36:34;101610.31;;;21.05;70.89
58690;BME280;44470;53.206;-6.106;2023-09-08T07:38:59;101607.63;;;21.07;71.15
58690;BME280;44470;53.206;-6.106;2023-09-08T07:41:25;101604.03;;;21.07;70.94
58690;BME280;44470;53.206;-6.106;2023-09-08T07:43:50;101601.38;;;21.07;70.80
58690;BME280;44470;53.206;-6.106;2023-09-08T07:46:20;101594.25;;;21.05;71.00
58690;BME280;44470;53.206;-6.106;2023-09-08T07:48:45;101596.00;;;21.07;71.10
58690;BME280;44470;53.206;-6.106;2023-09-08T07:51:10;101601.38;;;21.07;70.80
58690;BME280;44470;53.206;-6.106;2023-09-08T07:53:36;101597.78;;;21.08;71.06
58690;BME280;44470;53.206;-6.106;2023-09-08T07:56:01;101604.03;;;21.07;70.73
58690;BME280;44470;53.206;-6.106;2023-09-08T07:58:27;101610.28;;;21.09;71.02
58690;BME280;44470;53.206;-6.106;2023-09-08T08:00:52;101602.28;;;21.07;71.12
58690;BME280;44470;53.206;-6.106;2023-09-08T08:03:17;101555.25;;;20.83;70.79
58690;BME280;44470;53.206;-6.106;2023-09-08T08:05:43;101590.66;;;21.07;70.74
58690;BME280;44470;53.206;-6.106;2023-09-08T08:08:08;101592.44;;;21.08;70.79
58690;BME280;44470;53.206;-6.106;2023-09-08T08:10:34;101592.44;;;21.08;70.64
58690;BME280;44470;53.206;-6.106;2023-09-08T08:13:00;101600.47;;;21.09;71.05
58690;BME280;44470;53.206;-6.106;2023-09-08T08:15:34;101604.03;;;21.08;70.97
58690;BME280;44470;53.206;-6.106;2023-09-08T08:18:00;101607.59;;;21.09;70.77
58690;BME280;44470;53.206;-6.106;2023-09-08T08:20:25;101592.53;;;20.98;70.72
58690;BME280;44470;53.206;-6.106;2023-09-08T08:22:50;101610.28;;;21.09;70.93
58690;BME280;44470;53.206;-6.106;2023-09-08T08:25:16;101610.28;;;21.09;71.25
58690;BME280;44470;53.206;-6.106;2023-09-08T08:27:41;101612.94;;;21.09;70.78
58690;BME280;44470;53.206;-6.106;2023-09-08T08:30:07;101615.63;;;21.09;71.00
58690;BME280;44470;53.206;-6.106;2023-09-08T08:32:33;101616.53;;;21.09;71.18
58690;BME280;44470;53.206;-6.106;2023-09-08T08:34:58;101617.44;;;21.08;71.01
58690;BME280;44470;53.206;-6.106;2023-09-08T08:37:24;101627.22;;;21.08;71.07
58690;BME280;44470;53.206;-6.106;2023-09-08T08:39:49;101623.66;;;21.10;70.85
58690;BME280;44470;53.206;-6.106;2023-09-08T08:42:14;101627.22;;;21.09;70.85
58690;BME280;44470;53.206;-6.106;2023-09-08T08:44:40;101621.88;;;21.09;71.15
58690;BME280;44470;53.206;-6.106;2023-09-08T08:47:06;101623.66;;;21.09;70.95
58690;BME280;44470;53.206;-6.106;2023-09-08T08:49:33;101623.66;;;21.10;70.89
58690;BME280;44470;53.206;-6.106;2023-09-08T08:51:58;101628.09;;;21.10;71.08
58690;BME280;44470;53.206;-6.106;2023-09-08T08:54:24;101626.31;;;21.09;70.87
58690;BME280;44470;53.206;-6.106;2023-09-08T08:56:50;101618.31;;;21.09;71.36
58690;BME280;44470;53.206;-6.106;2023-09-08T08:59:15;101620.97;;;21.09;71.46
58690;BME280;44470;53.206;-6.106;2023-09-08T09:01:41;101618.31;;;21.09;71.06
58690;BME280;44470;53.206;-6.106;2023-09-08T09:04:07;101626.31;;;21.09;71.24
58690;BME280;44470;53.206;-6.106;2023-09-08T09:06:33;101631.69;;;21.09;71.06
58690;BME280;44470;53.206;-6.106;2023-09-08T09:08:59;101620.97;;;21.09;71.35
58690;BME280;44470;53.206;-6.106;2023-09-08T09:11:25;101620.97;;;21.09;71.14
58690;BME280;44470;53.206;-6.106;2023-09-08T09:13:50;101621.88;;;21.09;70.97
58690;BME280;44470;53.206;-6.106;2023-09-08T09:16:15;101629.00;;;21.09;71.24
58690;BME280;44470;53.206;-6.106;2023-09-08T09:18:54;101629.91;;;21.08;71.20
58690;BME280;44470;53.206;-6.106;2023-09-08T09:21:20;101630.78;;;21.10;71.22
58690;BME280;44470;53.206;-6.106;2023-09-08T09:23:46;101629.91;;;21.09;71.38
58690;BME280;44470;53.206;-6.106;2023-09-08T09:26:11;101646.84;;;21.10;71.12
58690;BME280;44470;53.206;-6.106;2023-09-08T09:28:47;101653.09;;;21.09;71.31
58690;BME280;44470;53.206;-6.106;2023-09-08T09:31:13;101643.28;;;21.09;71.22
58690;BME280;44470;53.206;-6.106;2023-09-08T09:33:38;101649.50;;;21.10;71.12
58690;BME280;44470;53.206;-6.106;2023-09-08T09:36:04;101653.97;;;21.11;71.23
58690;BME280;44470;53.206;-6.106;2023-09-08T09:38:30;101652.19;;;21.10;71.23
58690;BME280;44470;53.206;-6.106;2023-09-08T09:40:56;101660.22;;;21.10;71.19
58690;BME280;44470;53.206;-6.106;2023-09-08T09:43:22;101657.53;;;21.10;70.98
58690;BME280;44470;53.206;-6.106;2023-09-08T09:45:48;101657.53;;;21.10;71.04
58690;BME280;44470;53.206;-6.106;2023-09-08T09:48:13;101660.22;;;21.10;71.44
58690;BME280;44470;53.206;-6.106;2023-09-08T09:50:39;101658.50;;;21.04;70.95
58690;BME280;44470;53.206;-6.106;2023-09-08T09:53:10;101664.66;;;21.11;71.12
58690;BME280;44470;53.206;-6.106;2023-09-08T09:55:36;101666.47;;;21.10;71.33
58690;BME280;44470;53.206;-6.106;2023-09-08T09:58:02;101664.66;;;21.11;71.19
58690;BME280;44470;53.206;-6.106;2023-09-08T10:00:29;101667.34;;;21.11;71.28
58690;BME280;44470;53.206;-6.106;2023-09-08T10:02:55;101661.13;;;21.09;71.05
58690;BME280;44470;53.206;-6.106;2023-09-08T10:05:21;101660.22;;;21.10;71.23
58690;BME280;44470;53.206;-6.106;2023-09-08T10:07:47;101661.13;;;21.10;71.15
58690;BME280;44470;53.206;-6.106;2023-09-08T10:10:14;101662.00;;;21.11;71.14
58690;BME280;44470;53.206;-6.106;2023-09-08T10:12:39;101658.44;;;21.10;71.20
58690;BME280;44470;53.206;-6.106;2023-09-08T10:15:06;101659.31;;;21.11;71.26
58690;BME280;44470;53.206;-6.106;2023-09-08T10:17:32;101651.28;;;21.11;71.15
58690;BME280;44470;53.206;-6.106;2023-09-08T10:19:59;101648.63;;;21.11;71.46
58690;BME280;44470;53.206;-6.106;2023-09-08T10:22:26;101651.28;;;21.11;71.13
58690;BME280;44470;53.206;-6.106;2023-09-08T10:24:55;101651.28;;;21.11;71.27
58690;BME280;44470;53.206;-6.106;2023-09-08T10:27:21;101644.16;;;21.11;71.10
58690;BME280;44470;53.206;-6.106;2023-09-08T10:29:48;101631.78;;;20.99;71.04
58690;BME280;44470;53.206;-6.106;2023-09-08T10:32:14;101646.84;;;21.11;71.33
58690;BME280;44470;53.206;-6.106;2023-09-08T10:34:40;101647.75;;;21.10;71.43
58690;BME280;44470;53.206;-6.106;2023-09-08T10:37:22;101650.41;;;21.10;71.33
58690;BME280;44470;53.206;-6.106;2023-09-08T10:39:50;101651.31;;;21.08;71.40
58690;BME280;44470;53.206;-6.106;2023-09-08T10:44:41;101653.06;;;21.12;71.32
58690;BME280;44470;53.206;-6.106;2023-09-08T10:47:07;101656.63;;;21.11;71.44
58690;BME280;44470;53.206;-6.106;2023-09-08T10:49:36;101653.09;;;21.10;71.46
58690;BME280;44470;53.206;-6.106;2023-09-08T10:52:12;101651.28;;;21.11;71.27
58690;BME280;44470;53.206;-6.106;2023-09-08T10:54:41;101650.41;;;21.10;71.65
58690;BME280;44470;53.206;-6.106;2023-09-08T10:57:12;101643.25;;;21.12;71.63
58690;BME280;44470;53.206;-6.106;2023-09-08T10:59:38;101645.03;;;21.12;71.37
58690;BME280;44470;53.206;-6.106;2023-09-08T11:02:04;101614.03;;;20.92;71.41
58690;BME280;44470;53.206;-6.106;2023-09-08T11:04:29;101642.34;;;21.12;71.46
58690;BME280;44470;53.206;-6.106;2023-09-08T11:06:58;101617.50;;;21.00;71.30
58690;BME280;44470;53.206;-6.106;2023-09-08T11:09:23;101625.38;;;21.13;71.34
58690;BME280;44470;53.206;-6.106;2023-09-08T11:11:49;101627.19;;;21.12;71.54
58690;BME280;44470;53.206;-6.106;2023-09-08T11:14:14;101622.75;;;21.11;71.40
58690;BME280;44470;53.206;-6.106;2023-09-08T11:16:40;101626.28;;;21.12;71.49
58690;BME280;44470;53.206;-6.106;2023-09-08T11:19:05;101631.66;;;21.12;71.63
58690;BME280;44470;53.206;-6.106;2023-09-08T11:21:31;101632.56;;;21.12;71.73
58690;BME280;44470;53.206;-6.106;2023-09-08T11:24:01;101620.94;;;21.12;71.60
58690;BME280;44470;53.206;-6.106;2023-09-08T11:26:26;101628.06;;;21.13;71.55
58690;BME280;44470;53.206;-6.106;2023-09-08T11:28:52;101615.59;;;21.12;71.73
58690;BME280;44470;53.206;-6.106;2023-09-08T11:31:18;101611.13;;;21.12;71.80
58690;BME280;44470;53.206;-6.106;2023-09-08T11:33:44;101615.59;;;21.12;71.55
58690;BME280;44470;53.206;-6.106;2023-09-08T11:36:13;101612.00;;;21.13;71.77
58690;BME280;44470;53.206;-6.106;2023-09-08T11:38:42;101612.91;;;21.12;71.74
58690;BME280;44470;53.206;-6.106;2023-09-08T11:41:08;101606.66;;;21.13;71.71
58690;BME280;44470;53.206;-6.106;2023-09-08T11:43:34;101612.00;;;21.14;71.79
58690;BME280;44470;53.206;-6.106;2023-09-08T11:45:59;101606.66;;;21.13;71.80
58690;BME280;44470;53.206;-6.106;2023-09-08T11:48:25;101603.06;;;21.14;71.75
58690;BME280;44470;53.206;-6.106;2023-09-08T11:50:54;101607.53;;;21.15;71.75
58690;BME280;44470;53.206;-6.106;2023-09-08T11:53:20;101611.09;;;21.14;71.76
58690;BME280;44470;53.206;-6.106;2023-09-08T11:55:46;101609.31;;;21.14;71.90
58690;BME280;44470;53.206;-6.106;2023-09-08T11:58:11;101607.56;;;21.13;71.70
58690;BME280;44470;53.206;-6.106;2023-09-08T12:00:37;101607.53;;;21.15;71.85
58690;BME280;44470;53.206;-6.106;2023-09-08T12:03:10;101609.31;;;21.14;72.15
58690;BME280;44470;53.206;-6.106;2023-09-08T12:05:36;101613.78;;;21.14;71.82
58690;BME280;44470;53.206;-6.106;2023-09-08T12:08:03;101609.31;;;21.14;71.90
58690;BME280;44470;53.206;-6.106;2023-09-08T12:10:30;101613.78;;;21.15;72.15
58690;BME280;44470;53.206;-6.106;2023-09-08T12:12:55;101612.88;;;21.15;71.96
58690;BME280;44470;53.206;-6.106;2023-09-08T12:15:32;101610.19;;;21.15;72.18
58690;BME280;44470;53.206;-6.106;2023-09-08T12:17:58;101604.03;;;21.07;72.02
58690;BME280;44470;53.206;-6.106;2023-09-08T12:20:23;101621.81;;;21.15;72.18
58690;BME280;44470;53.206;-6.106;2023-09-08T12:22:49;101615.56;;;21.15;72.06
58690;BME280;44470;53.206;-6.106;2023-09-08T12:25:15;101620.91;;;21.15;72.22
58690;BME280;44470;53.206;-6.106;2023-09-08T12:27:41;101615.56;;;21.15;72.38
58690;BME280;44470;53.206;-6.106;2023-09-08T12:30:07;101613.75;;;21.17;72.18
58690;BME280;44470;53.206;-6.106;2023-09-08T12:32:33;101613.78;;;21.15;72.20
58690;BME280;44470;53.206;-6.106;2023-09-08T12:35:00;101609.28;;;21.16;72.30
58690;BME280;44470;53.206;-6.106;2023-09-08T12:37:28;101611.97;;;21.16;72.10
58690;BME280;44470;53.206;-6.106;2023-09-08T12:39:54;101619.09;;;21.17;72.19
58690;BME280;44470;53.206;-6.106;2023-09-08T12:42:19;101613.75;;;21.17;72.08